.
WxDataArchive / Data Records for 2007-12-13
2007-12-12 December 2007 2007-12-14

Data Records for Thursday, 13 December 2007

Time	Temp	Chill	HIndex	Humid	Dewpt	 Wind 	HiWind	WindDir	Rain 	Barom 
-----	----	-----	------	-----	-----	------	------	-------	-----	----- 
00:00	31.3	27.3	31.3	84	27.0	4	7	112	0.00	30.149 
00:05	31.3	26.3	31.3	84	27.0	5	10	112	0.00	30.140 
00:10	31.3	27.3	31.3	84	27.0	4	12	112	0.00	30.136 
00:15	31.2	27.2	31.2	84	26.9	4	10	90	0.00	30.135 
00:20	31.2	31.2	31.2	85	27.2	2	7	90	0.00	30.141 
00:25	31.2	31.2	31.2	85	27.2	3	7	90	0.00	30.146 
00:30	31.3	31.3	31.3	85	27.3	2	4	90	0.00	30.141 
00:35	31.3	31.3	31.3	85	27.3	3	6	112	0.00	30.149 
00:40	31.3	31.3	31.3	85	27.3	3	6	112	0.00	30.142 
00:45	31.3	27.3	31.3	85	27.3	4	10	90	0.00	30.133 
00:50	31.3	31.3	31.3	85	27.3	3	6	112	0.00	30.122 
00:55	31.3	31.3	31.3	85	27.3	3	6	90	0.00	30.122 
01:00	31.5	31.5	31.5	85	27.5	2	5	112	0.00	30.110 
01:05	31.5	31.5	31.5	85	27.5	2	7	112	0.00	30.112 
01:10	31.5	31.5	31.5	86	27.8	2	6	112	0.00	30.104 
01:15	31.5	31.5	31.5	85	27.5	3	7	90	0.00	30.097 
01:20	31.5	31.5	31.5	85	27.5	3	9	112	0.00	30.095 
01:25	31.5	27.5	31.5	86	27.8	4	9	90	0.00	30.086 
01:30	31.5	31.5	31.5	86	27.8	2	5	112	0.00	30.080 
01:35	31.5	31.5	31.5	86	27.8	3	7	112	0.00	30.072 
01:40	31.5	27.5	31.5	86	27.8	4	7	112	0.00	30.070 
01:45	31.5	31.5	31.5	86	27.8	3	10	90	0.00	30.059 
01:50	31.5	27.5	31.5	86	27.8	4	9	112	0.00	30.056 
01:55	31.5	27.5	31.5	86	27.8	4	9	112	0.00	30.056 
02:00	31.6	31.6	31.6	86	27.9	2	5	90	0.00	30.061 
02:05	31.6	31.6	31.6	87	28.2	2	6	90	0.00	30.054 
02:10	31.6	31.6	31.6	87	28.2	2	6	112	0.00	30.060 
02:15	31.6	31.6	31.6	87	28.2	2	5	112	0.00	30.064 
02:20	31.6	31.6	31.6	87	28.2	2	5	112	0.00	30.074 
02:25	31.6	31.6	31.6	87	28.2	2	5	112	0.00	30.081 
02:30	31.8	31.8	31.8	87	28.4	2	7	90	0.00	30.077 
02:35	31.8	31.8	31.8	87	28.4	1	4	90	0.00	30.081 
02:40	31.8	31.8	31.8	88	28.7	2	5	112	0.00	30.085 
02:45	31.8	31.8	31.8	88	28.7	1	3	90	0.00	30.084 
02:50	31.8	31.8	31.8	88	28.7	2	3	90	0.00	30.081 
02:55	31.8	31.8	31.8	89	28.9	1	2	112	0.01	30.082 
03:00	31.8	31.8	31.8	90	29.2	1	4	112	0.00	30.074 
03:05	31.8	31.8	31.8	90	29.2	2	5	90	0.00	30.072 
03:10	31.8	31.8	31.8	90	29.2	2	5	90	0.00	30.064 
03:15	31.8	31.8	31.8	91	29.5	1	3	112	0.00	30.058 
03:20	31.8	31.8	31.8	91	29.5	2	3	68	0.00	30.055 
03:25	31.8	31.8	31.8	91	29.5	3	7	90	0.00	30.049 
03:30	31.8	31.8	31.8	92	29.7	2	5	112	0.01	30.040 
03:35	31.8	31.8	31.8	92	29.7	3	6	112	0.00	30.034 
03:40	31.8	31.8	31.8	92	29.7	2	4	90	0.00	30.029 
03:45	31.8	31.8	31.8	92	29.7	2	4	90	0.00	30.026 
03:50	31.8	31.8	31.8	92	29.7	3	5	112	0.00	30.022 
03:55	31.8	31.8	31.8	92	29.7	2	4	90	0.00	30.011 
04:00	31.6	31.6	31.6	92	29.5	3	6	112	0.00	30.007 
04:05	31.6	31.6	31.6	92	29.5	2	5	90	0.00	30.001 
04:10	31.6	31.6	31.6	93	29.8	3	6	90	0.00	30.003 
04:15	31.6	31.6	31.6	93	29.8	3	5	90	0.00	29.994 
04:20	31.6	31.6	31.6	93	29.8	3	5	90	0.00	29.980 
04:25	31.6	31.6	31.6	93	29.8	3	7	112	0.00	29.981 
04:30	31.6	31.6	31.6	93	29.8	2	5	112	0.00	29.978 
04:35	31.6	31.6	31.6	93	29.8	1	3	112	0.00	29.993 
04:40	31.8	31.8	31.8	93	30.0	2	5	112	0.00	29.986 
04:45	31.8	31.8	31.8	93	30.0	2	5	112	0.00	29.988 
04:50	31.8	31.8	31.8	93	30.0	2	5	90	0.00	29.980 
04:55	31.8	31.8	31.8	93	30.0	3	4	112	0.00	29.976 
05:00	31.8	31.8	31.8	93	30.0	2	5	112	0.00	29.977 
05:05	31.8	31.8	31.8	93	30.0	2	6	112	0.00	29.973 
05:10	31.8	31.8	31.8	94	30.3	2	5	112	0.00	29.967 
05:15	31.8	31.8	31.8	94	30.3	2	4	90	0.00	29.975 
05:20	31.8	31.8	31.8	94	30.3	2	5	90	0.00	29.973 
05:25	31.9	31.9	31.9	94	30.4	1	3	112	0.00	29.976 
05:30	31.9	31.9	31.9	94	30.4	1	3	112	0.00	29.970 
05:35	31.9	31.9	31.9	94	30.4	1	3	112	0.00	29.966 
05:40	31.9	31.9	31.9	94	30.4	1	3	90	0.00	29.966 
05:45	31.9	31.9	31.9	94	30.4	1	3	112	0.00	29.962 
05:50	31.9	31.9	31.9	94	30.4	1	3	112	0.00	29.959 
05:55	31.9	31.9	31.9	94	30.4	1	3	90	0.00	29.963 
06:00	31.9	31.9	31.9	94	30.4	1	3	90	0.00	29.966 
06:05	32.1	32.1	32.1	94	30.6	0	3	112	0.00	29.981 
06:10	32.1	32.1	32.1	94	30.6	0	2	112	0.00	29.980 
06:15	32.1	32.1	32.1	94	30.6	0	2	112	0.00	29.967 
06:20	32.1	32.1	32.1	94	30.6	1	2	112	0.00	29.954 
06:25	32.1	32.1	32.1	94	30.6	1	3	112	0.00	29.948 
06:30	32.1	32.1	32.1	94	30.6	1	2	112	0.00	29.947 
06:35	32.1	32.1	32.1	94	30.6	1	3	112	0.00	29.933 
06:40	32.1	32.1	32.1	94	30.6	2	5	90	0.00	29.919 
06:45	32.1	32.1	32.1	94	30.6	2	5	90	0.00	29.918 
06:50	32.1	32.1	32.1	95	30.8	1	3	90	0.00	29.936 
06:55	32.1	32.1	32.1	95	30.8	0	2	90	0.00	29.959 
07:00	32.1	32.1	32.1	95	30.8	1	2	90	0.00	29.942 
07:05	32.1	32.1	32.1	95	30.8	0	2	90	0.00	29.948 
07:10	32.2	32.2	32.2	95	30.9	0	1	90	0.00	29.944 
07:15	32.2	32.2	32.2	95	30.9	0	3	90	0.00	29.949 
07:20	32.2	32.2	32.2	95	30.9	0	2	90	0.00	29.951 
07:25	32.2	32.2	32.2	95	30.9	0	2	90	0.00	29.950 
07:30	32.2	32.2	32.2	95	30.9	0	2	90	0.00	29.951 
07:35	32.2	32.2	32.2	95	30.9	0	2	90	0.00	29.948 
07:40	32.2	32.2	32.2	95	30.9	0	1	90	0.00	29.952 
07:45	32.2	32.2	32.2	95	30.9	0	2	90	0.00	29.955 
07:50	32.2	32.2	32.2	95	30.9	0	1	90	0.00	29.951 
07:55	32.2	32.2	32.2	95	30.9	0	1	90	0.00	29.949 
08:00	32.2	32.2	32.2	95	30.9	0	1	90	0.00	29.944 
08:05	32.2	32.2	32.2	95	30.9	0	1	112	0.00	29.940 
08:10	32.2	32.2	32.2	95	30.9	0	2	112	0.00	29.934 
08:15	32.2	32.2	32.2	95	30.9	0	1	112	0.00	29.940 
08:20	32.2	32.2	32.2	95	30.9	0	1	112	0.00	29.942 
08:25	32.2	32.2	32.2	95	30.9	0	1	112	0.00	29.941 
08:30	32.2	32.2	32.2	95	30.9	0	1	112	0.00	29.944 
08:35	32.2	32.2	32.2	95	30.9	0	1	112	0.00	29.935 
08:40	32.2	32.2	32.2	95	30.9	0	1	112	0.00	29.935 
08:45	32.2	32.2	32.2	95	30.9	0	1	112	0.00	29.934 
08:50	32.2	32.2	32.2	95	30.9	0	0	---	0.00	29.934 
08:55	32.2	32.2	32.2	95	30.9	0	0	---	0.00	29.934 
09:00	32.2	32.2	32.2	95	30.9	0	0	---	0.00	29.931 
09:05	32.2	32.2	32.2	95	30.9	0	0	---	0.00	29.922 
09:10	32.2	32.2	32.2	95	30.9	0	1	112	0.00	29.917 
09:15	32.4	32.4	32.4	96	31.4	0	0	---	0.00	29.917 
09:20	32.4	32.4	32.4	96	31.4	0	0	---	0.00	29.919 
09:25	32.4	32.4	32.4	96	31.4	0	0	---	0.00	29.922 
09:30	32.4	32.4	32.4	96	31.4	0	0	---	0.00	29.924 
09:35	32.4	32.4	32.4	96	31.4	0	0	---	0.00	29.929 
09:40	32.5	32.5	32.5	96	31.5	0	0	---	0.00	29.930 
09:45	32.5	32.5	32.5	96	31.5	0	0	---	0.00	29.931 
09:50	32.5	32.5	32.5	96	31.5	0	1	112	0.00	29.932 
09:55	32.7	32.7	32.7	96	31.7	0	0	---	0.00	29.933 
10:00	32.7	32.7	32.7	96	31.7	0	0	---	0.00	29.937 
10:05	32.8	32.8	32.8	96	31.8	0	1	112	0.00	29.943 
10:10	32.9	32.9	32.9	96	31.9	0	1	112	0.00	29.942 
10:15	33.1	33.1	33.1	96	32.1	0	0	---	0.00	29.939 
10:20	33.1	33.1	33.1	96	32.1	0	1	112	0.01	29.945 
10:25	33.2	33.2	33.2	96	32.2	0	0	---	0.00	29.949 
10:30	33.4	33.4	33.4	96	32.4	0	1	112	0.00	29.951 
10:35	33.4	33.4	33.4	96	32.4	0	2	158	0.00	29.949 
10:40	33.5	33.5	33.5	96	32.5	0	1	158	0.01	29.949 
10:45	33.7	33.7	33.7	96	32.7	0	1	158	0.00	29.936 
10:50	33.8	33.8	33.8	96	32.8	0	1	158	0.00	29.944 
10:55	34.1	34.1	34.1	96	33.1	0	3	180	0.00	29.945 
11:00	34.3	34.3	34.3	96	33.3	1	3	248	0.00	29.948 
11:05	34.4	34.4	34.4	96	33.4	1	4	248	0.00	29.949 
11:10	34.6	34.6	34.6	96	33.6	1	4	248	0.00	29.947 
11:15	34.7	34.7	34.7	96	33.7	2	5	248	0.00	29.947 
11:20	35.0	35.0	35.0	96	34.0	1	3	248	0.00	29.947 
11:25	35.3	35.3	35.3	96	34.3	1	5	248	0.00	29.948 
11:30	35.3	35.3	35.3	96	34.3	1	5	248	0.00	29.946 
11:35	35.5	35.5	35.5	96	34.5	2	5	248	0.00	29.944 
11:40	35.6	35.6	35.6	96	34.6	2	5	248	0.00	29.942 
11:45	35.8	35.8	35.8	96	34.8	2	7	248	0.00	29.946 
11:50	35.8	35.8	35.8	96	34.8	3	9	248	0.00	29.946 
11:55	35.9	35.9	35.9	96	34.9	3	6	270	0.00	29.948 
12:00	36.0	36.0	36.0	96	35.0	2	4	248	0.00	29.947 
12:05	35.9	35.9	35.9	96	34.9	3	7	270	0.00	29.945 
12:10	36.0	36.0	36.0	96	35.0	2	7	270	0.00	29.942 
12:15	36.2	36.2	36.2	96	35.2	2	6	292	0.00	29.936 
12:20	36.3	36.3	36.3	96	35.3	1	7	248	0.00	29.936 
12:25	36.5	36.5	36.5	96	35.5	2	5	270	0.00	29.933 
12:30	36.6	36.6	36.6	96	35.6	1	5	248	0.00	29.929 
12:35	36.6	36.6	36.6	96	35.6	2	5	248	0.00	29.930 
12:40	36.6	36.6	36.6	95	35.3	2	5	270	0.00	29.937 
12:45	36.6	36.6	36.6	95	35.3	2	5	270	0.00	29.936 
12:50	36.6	36.6	36.6	95	35.3	2	5	315	0.00	29.934 
12:55	36.6	36.6	36.6	94	35.0	1	5	270	0.00	29.932 
13:00	36.6	36.6	36.6	94	35.0	3	7	270	0.00	29.931 
13:05	36.8	36.8	36.8	94	35.2	2	5	248	0.00	29.931 
13:10	36.8	36.8	36.8	93	35.0	2	5	248	0.00	29.935 
13:15	36.8	36.8	36.8	93	35.0	3	7	270	0.00	29.933 
13:20	36.8	36.8	36.8	92	34.7	3	10	270	0.00	29.931 
13:25	36.9	36.9	36.9	92	34.8	3	6	270	0.00	29.931 
13:30	37.0	37.0	37.0	92	34.9	2	4	270	0.00	29.929 
13:35	36.9	36.9	36.9	91	34.5	2	9	270	0.00	29.929 
13:40	37.0	37.0	37.0	90	34.3	2	4	270	0.00	29.930 
13:45	37.0	37.0	37.0	90	34.3	2	11	248	0.00	29.931 
13:50	37.0	37.0	37.0	89	34.1	2	7	270	0.00	29.932 
13:55	37.2	37.2	37.2	89	34.3	2	5	270	0.00	29.938 
14:00	37.2	37.2	37.2	89	34.3	1	5	270	0.00	29.931 
14:05	37.2	37.2	37.2	88	34.0	2	5	270	0.00	29.939 
14:10	37.2	37.2	37.2	87	33.7	3	5	270	0.00	29.936 
14:15	37.2	37.2	37.2	86	33.4	2	6	270	0.00	29.939 
14:20	37.2	37.2	37.2	85	33.1	2	7	270	0.00	29.937 
14:25	37.2	37.2	37.2	85	33.1	2	7	248	0.00	29.941 
14:30	37.0	37.0	37.0	84	32.6	3	10	270	0.00	29.942 
14:35	36.9	36.9	36.9	84	32.5	3	9	270	0.00	29.941 
14:40	36.9	36.9	36.9	83	32.2	3	10	270	0.00	29.941 
14:45	36.9	36.9	36.9	82	31.9	3	9	270	0.00	29.943 
14:50	36.9	36.9	36.9	82	31.9	2	7	248	0.00	29.945 
14:55	36.9	32.8	36.9	79	31.0	5	14	270	0.00	29.947 
15:00	36.9	36.9	36.9	79	31.0	2	6	270	0.00	29.949 
15:05	37.0	37.0	37.0	78	30.8	2	5	270	0.00	29.956 
15:10	37.0	37.0	37.0	78	30.8	3	7	270	0.00	29.960 
15:15	36.9	33.7	36.9	78	30.7	4	12	270	0.00	29.961 
15:20	36.8	36.8	36.8	79	30.9	3	9	248	0.00	29.962 
15:25	36.6	33.4	36.6	79	30.7	4	11	270	0.00	29.962 
15:30	36.5	32.4	36.5	79	30.6	5	12	270	0.00	29.962 
15:35	36.3	36.3	36.3	78	30.1	3	10	270	0.00	29.961 
15:40	36.3	33.0	36.3	77	29.8	4	11	270	0.00	29.964 
15:45	36.3	36.3	36.3	77	29.8	3	7	248	0.00	29.962 
15:50	36.2	32.0	36.2	76	29.4	5	12	270	0.00	29.961 
15:55	36.2	36.2	36.2	77	29.7	3	7	270	0.00	29.964 
16:00	36.0	32.7	36.0	78	29.8	4	13	270	0.00	29.963 
16:05	35.8	32.5	35.8	80	30.2	4	12	270	0.00	29.965 
16:10	35.5	31.2	35.5	80	30.0	5	11	270	0.00	29.974 
16:15	35.2	31.8	35.2	80	29.7	4	13	270	0.00	29.979 
16:20	35.0	35.0	35.0	80	29.5	3	6	270	0.00	29.978 
16:25	35.0	35.0	35.0	80	29.5	3	7	270	0.00	29.979 
16:30	34.9	30.5	34.9	78	28.7	5	13	248	0.00	29.980 
16:35	34.9	31.4	34.9	78	28.7	4	8	270	0.00	29.979 
16:40	34.9	34.9	34.9	79	29.1	3	9	270	0.00	29.980 
16:45	34.7	34.7	34.7	79	28.9	3	7	270	0.00	29.984 
16:50	34.6	31.1	34.6	78	28.5	4	11	270	0.00	29.982 
16:55	34.4	30.8	34.4	79	28.6	4	14	270	0.00	29.986 
17:00	34.3	30.7	34.3	78	28.2	4	10	270	0.00	29.990 
17:05	34.3	30.7	34.3	78	28.2	4	9	270	0.00	29.987 
17:10	34.1	34.1	34.1	79	28.3	3	10	270	0.00	29.990 
17:15	34.0	34.0	34.0	80	28.5	3	6	270	0.00	29.996 
17:20	33.8	30.2	33.8	80	28.3	4	10	270	0.00	29.997 
17:25	33.7	30.0	33.7	80	28.2	4	12	270	0.00	29.999 
17:30	33.5	29.8	33.5	80	28.0	4	12	270	0.00	30.000 
17:35	33.5	28.8	33.5	79	27.7	5	11	270	0.00	30.007 
17:40	33.4	29.7	33.4	79	27.6	4	18	270	0.00	30.012 
17:45	33.2	29.5	33.2	79	27.4	4	9	270	0.00	30.014 
17:50	33.1	28.4	33.1	79	27.3	5	14	270	0.00	30.015 
17:55	33.1	28.4	33.1	78	27.0	5	13	270	0.00	30.017 
18:00	33.1	29.3	33.1	79	27.3	4	12	270	0.00	30.020 
18:05	32.9	32.9	32.9	80	27.4	3	9	270	0.00	30.019 
18:10	32.9	32.9	32.9	81	27.7	3	9	270	0.00	30.014 
18:15	32.8	32.8	32.8	81	27.6	3	12	248	0.00	30.015 
18:20	32.7	27.1	32.7	79	26.9	6	16	270	0.00	30.015 
18:25	32.4	27.5	32.4	79	26.6	5	13	270	0.00	30.014 
18:30	32.2	27.3	32.2	79	26.4	5	12	270	0.00	30.016 
18:35	32.1	27.2	32.1	79	26.3	5	15	270	0.00	30.016 
18:40	32.1	27.2	32.1	78	26.0	5	11	270	0.00	30.016 
18:45	31.9	28.0	31.9	79	26.1	4	9	270	0.00	30.023 
18:50	31.8	31.8	31.8	80	26.3	3	7	248	0.00	30.027 
18:55	31.8	27.8	31.8	81	26.6	4	10	270	0.00	30.028 
19:00	31.8	27.8	31.8	81	26.6	4	9	270	0.00	30.030 
19:05	31.8	26.8	31.8	81	26.6	5	15	270	0.00	30.037 
19:10	31.6	26.6	31.6	81	26.5	5	15	270	0.00	30.035 
19:15	31.5	25.6	31.5	80	26.1	6	14	270	0.00	30.030 
19:20	31.5	26.5	31.5	81	26.4	5	11	270	0.00	30.031 
19:25	31.3	26.3	31.3	81	26.2	5	14	270	0.00	30.034 
19:30	31.3	27.3	31.3	81	26.2	4	17	270	0.00	30.035 
19:35	31.3	31.3	31.3	81	26.2	3	9	270	0.00	30.040 
19:40	31.3	26.3	31.3	81	26.2	5	10	270	0.00	30.044 
19:45	31.5	27.5	31.5	81	26.4	4	12	270	0.00	30.045 
19:50	31.5	27.5	31.5	81	26.4	4	13	270	0.00	30.045 
19:55	31.5	27.5	31.5	81	26.4	4	10	270	0.00	30.047 
20:00	31.5	31.5	31.5	81	26.4	3	10	270	0.00	30.051 
20:05	31.5	27.5	31.5	81	26.4	4	10	270	0.00	30.052 
20:10	31.5	27.5	31.5	81	26.4	4	14	270	0.00	30.049 
20:15	31.3	27.3	31.3	81	26.2	4	10	270	0.00	30.048 
20:20	31.5	27.5	31.5	80	26.1	4	7	270	0.00	30.054 
20:25	31.5	31.5	31.5	80	26.1	3	9	248	0.00	30.056 
20:30	31.5	27.5	31.5	80	26.1	4	12	270	0.00	30.057 
20:35	31.5	31.5	31.5	81	26.4	3	11	270	0.00	30.059 
20:40	31.5	27.5	31.5	81	26.4	4	12	270	0.00	30.060 
20:45	31.5	31.5	31.5	81	26.4	3	7	270	0.00	30.062 
20:50	31.5	27.5	31.5	81	26.4	4	11	270	0.00	30.063 
20:55	31.5	27.5	31.5	80	26.1	4	12	270	0.00	30.066 
21:00	31.5	27.5	31.5	81	26.4	4	12	270	0.00	30.071 
21:05	31.5	31.5	31.5	81	26.4	2	6	248	0.00	30.075 
21:10	31.5	27.5	31.5	81	26.4	4	10	270	0.00	30.077 
21:15	31.5	27.5	31.5	81	26.4	4	9	270	0.00	30.076 
21:20	31.5	27.5	31.5	80	26.1	4	13	270	0.00	30.077 
21:25	31.5	26.5	31.5	80	26.1	5	11	270	0.00	30.077 
21:30	31.5	31.5	31.5	80	26.1	3	8	270	0.00	30.077 
21:35	31.5	27.5	31.5	80	26.1	4	12	270	0.00	30.077 
21:40	31.6	27.6	31.6	80	26.2	4	8	270	0.00	30.078 
21:45	31.6	27.6	31.6	80	26.2	4	9	270	0.00	30.078 
21:50	31.6	27.6	31.6	80	26.2	4	8	270	0.00	30.077 
21:55	31.6	27.6	31.6	79	25.8	4	10	270	0.00	30.077 
22:00	31.6	27.6	31.6	79	25.8	4	15	270	0.00	30.076 
22:05	31.6	31.6	31.6	79	25.8	3	7	270	0.00	30.076 
22:10	31.6	31.6	31.6	80	26.2	2	7	270	0.00	30.076 
22:15	31.6	27.6	31.6	80	26.2	4	10	270	0.00	30.076 
22:20	31.6	31.6	31.6	80	26.2	3	7	270	0.00	30.074 
22:25	31.5	31.5	31.5	80	26.1	3	7	248	0.00	30.073 
22:30	31.5	31.5	31.5	80	26.1	3	13	270	0.00	30.073 
22:35	31.6	31.6	31.6	79	25.8	3	9	270	0.00	30.072 
22:40	31.6	31.6	31.6	79	25.8	3	7	248	0.00	30.074 
22:45	31.6	27.6	31.6	79	25.8	4	11	270	0.00	30.075 
22:50	31.6	27.6	31.6	79	25.8	4	11	248	0.00	30.076 
22:55	31.6	27.6	31.6	79	25.8	4	11	270	0.00	30.076 
23:00	31.6	27.6	31.6	79	25.8	4	10	248	0.00	30.082 
23:05	31.6	27.6	31.6	79	25.8	4	13	270	0.00	30.080 
23:10	31.8	27.8	31.8	79	26.0	4	10	270	0.00	30.082 
23:15	31.8	27.8	31.8	79	26.0	4	10	270	0.00	30.084 
23:20	31.8	27.8	31.8	79	26.0	4	11	270	0.00	30.087 
23:25	31.8	31.8	31.8	79	26.0	3	6	270	0.00	30.087 
23:30	31.8	27.8	31.8	79	26.0	4	9	248	0.00	30.089 
23:35	31.8	27.8	31.8	78	25.7	4	10	270	0.00	30.089 
23:40	31.8	26.8	31.8	78	25.7	5	14	270	0.00	30.091 
23:45	31.8	31.8	31.8	78	25.7	3	11	270	0.00	30.093 
23:50	31.8	27.8	31.8	78	25.7	4	11	270	0.00	30.100 
23:55	31.8	31.8	31.8	78	25.7	3	8	248	0.00	30.103 

CoCoRaHS
IN-AL-39
A2 Web Hosting
Creative Commons License
GoDaddy
Look for:

loaded 2017-10-17 18:08:04 • last modified 2010-11-18 10:43:29
Privacy PolicyDisclaimer
• wx.awcolley.com is powered by PmWiki v.2002016 •
• all content (unless otherwise noted) © 2017 A W Colley